Time;durP1;ratioP1;P1;durP2;ratioP2;P2;SDS_P1;SDS_P2;PMS_P1;PMS_P2;Temp;Humidity;BMP_temperature;BMP_pressure;BME280_temperature;BME280_humidity;BME280_pressure;Samples;Min_cycle;Max_cycle;Signal;HPM_P1;HPM_P2
2022/06/05 00:02:06;;;;;;;4.25;3.33;;;;;;;12.38;82.51;100909.81;5086600;28;20052;-77
2022/06/05 00:04:36;;;;;;;4.97;3.75;;;;;;;12.33;82.83;100907.13;5064838;28;20060;-74
2022/06/05 00:07:08;;;;;;;6.35;3.63;;;;;;;12.27;82.85;100900.00;5086779;28;20047;-74
2022/06/05 00:10:01;;;;;;;4.20;2.95;;;;;;;12.27;82.27;100902.75;5080409;28;20036;-74
2022/06/05 00:13:02;;;;;;;5.63;3.28;;;;;;;12.29;82.44;100903.28;5082468;28;20063;-73
2022/06/05 00:15:28;;;;;;;5.47;3.63;;;;;;;12.27;83.04;100911.00;5058961;28;20051;-75
2022/06/05 00:17:53;;;;;;;4.55;3.28;;;;;;;12.29;83.53;100920.59;5081025;28;20036;-74
2022/06/05 00:20:20;;;;;;;4.90;3.17;;;;;;;12.29;83.09;100909.59;5081009;28;20415;-74
2022/06/05 00:22:46;;;;;;;6.05;3.67;;;;;;;12.34;83.04;100911.50;5076854;28;20036;-73
2022/06/05 00:25:13;;;;;;;5.93;3.38;;;;;;;12.38;83.12;100905.13;5076218;28;20028;-73
2022/06/05 00:27:58;;;;;;;5.93;3.60;;;;;;;12.40;82.94;100915.84;5081714;28;20135;-73
2022/06/05 00:30:46;;;;;;;5.30;3.47;;;;;;;12.44;83.41;100916.09;5076378;28;20032;-74
2022/06/05 00:33:17;;;;;;;5.32;3.28;;;;;;;12.43;83.38;100911.72;5081255;28;20047;-74
2022/06/05 00:35:54;;;;;;;6.40;3.67;;;;;;;12.35;83.24;100916.72;5060216;28;20491;-73
2022/06/05 00:38:30;;;;;;;4.50;3.95;;;;;;;12.33;83.63;100916.19;5073900;28;20059;-73
2022/06/05 00:41:11;;;;;;;4.93;3.67;;;;;;;12.33;83.67;100916.19;5077966;28;20667;-73
2022/06/05 00:43:37;;;;;;;5.82;3.90;;;;;;;12.36;83.80;100923.88;5068523;28;20044;-73
2022/06/05 00:46:02;;;;;;;5.43;4.03;;;;;;;12.37;84.29;100914.50;5074498;28;20036;-74
2022/06/05 00:48:29;;;;;;;5.57;4.47;;;;;;;12.32;84.02;100919.22;5078061;28;20099;-74
2022/06/05 00:50:54;;;;;;;4.10;3.58;;;;;;;12.24;84.19;100912.41;5077664;28;20043;-74
2022/06/05 00:53:20;;;;;;;6.88;4.00;;;;;;;12.27;84.23;100916.50;5080246;28;20418;-76
2022/06/05 00:55:48;;;;;;;5.03;3.90;;;;;;;12.31;83.99;100928.56;5076090;28;20045;-70
2022/06/05 00:58:15;;;;;;;8.50;4.00;;;;;;;12.41;84.00;100924.94;5075865;28;20454;-69
2022/06/05 01:00:44;;;;;;;5.82;4.28;;;;;;;12.43;83.76;100930.97;5077607;28;20051;-70
2022/06/05 01:03:10;;;;;;;;;;;;;;;12.31;84.23;100932.16;5076689;28;20032;-69
2022/06/05 01:05:37;;;;;;;5.15;4.03;;;;;;;12.27;84.02;100927.50;5080241;28;19926;-70
2022/06/05 01:08:03;;;;;;;5.15;3.92;;;;;;;12.21;84.55;100926.72;5080008;28;20036;-70
2022/06/05 01:10:37;;;;;;;5.97;3.88;;;;;;;12.19;84.27;100914.38;5082114;28;20043;-70
2022/06/05 01:13:40;;;;;;;5.28;3.33;;;;;;;12.16;85.10;100913.00;5080394;28;20043;-71
2022/06/05 01:16:24;;;;;;;7.55;3.70;;;;;;;12.24;85.44;100915.16;5047541;28;20169;-71
2022/06/05 01:18:56;;;;;;;7.88;3.65;;;;;;;12.32;84.89;100925.56;5083051;28;20047;-78
2022/06/05 01:21:22;;;;;;;7.85;3.80;;;;;;;12.34;84.81;100915.09;5070658;28;20024;-73
2022/06/05 01:24:09;;;;;;;7.47;3.45;;;;;;;12.36;84.21;100906.53;5070385;28;20029;-73
2022/06/05 01:26:48;;;;;;;3.95;3.25;;;;;;;12.43;84.59;100908.97;5074636;28;20066;-73
2022/06/05 01:29:21;;;;;;;6.07;3.97;;;;;;;12.49;84.70;100908.63;5084552;28;20048;-73
2022/06/05 01:32:07;;;;;;;4.22;3.08;;;;;;;12.50;84.34;100912.22;5070907;28;20048;-73
2022/06/05 01:34:37;;;;;;;4.75;2.90;;;;;;;12.49;84.68;100907.78;5053391;28;20048;-73
2022/06/05 01:37:09;;;;;;;4.43;3.10;;;;;;;12.53;84.34;100917.16;5073718;28;20040;-73
2022/06/05 01:39:45;;;;;;;5.70;3.20;;;;;;;12.58;84.47;100917.09;5073700;28;20561;-73
2022/06/05 01:42:15;;;;;;;4.18;2.97;;;;;;;12.63;83.83;100920.63;5064931;28;20044;-73
2022/06/05 01:44:43;;;;;;;5.55;3.13;;;;;;;12.59;83.71;100919.56;5093975;28;20039;-73
2022/06/05 01:47:33;;;;;;;5.13;3.35;;;;;;;12.55;83.87;100924.00;5082066;28;20131;-72
2022/06/05 01:50:10;;;;;;;4.20;3.03;;;;;;;12.54;84.31;100927.88;5073448;28;20111;-73
2022/06/05 01:52:43;;;;;;;5.38;3.03;;;;;;;12.56;84.45;100925.66;5087677;28;20131;-73
2022/06/05 01:55:14;;;;;;;6.40;3.13;;;;;;;12.57;84.01;100927.28;5088838;28;20040;-73
2022/06/05 01:57:40;;;;;;;5.38;2.72;;;;;;;12.57;84.13;100937.47;5083000;28;20040;-73
2022/06/05 02:00:12;;;;;;;5.35;2.90;;;;;;;12.63;83.68;100939.06;5081626;28;20077;-73
2022/06/05 02:02:44;;;;;;;6.63;2.92;;;;;;;12.65;84.01;100934.09;5084222;28;20040;-73
2022/06/05 02:05:17;;;;;;;4.57;2.67;;;;;;;12.61;83.68;100935.78;5082030;28;20043;-73
2022/06/05 02:07:47;;;;;;;5.68;2.88;;;;;;;12.64;83.74;100932.44;5081315;28;20499;-73
2022/06/05 02:10:21;;;;;;;4.22;2.80;;;;;;;12.61;84.28;100933.84;5084711;28;20593;-73
2022/06/05 02:12:47;;;;;;;3.08;2.45;;;;;;;12.63;84.08;100933.56;5076703;28;20028;-73
2022/06/05 02:15:12;;;;;;;3.97;2.70;;;;;;;12.67;84.02;100937.41;5087113;28;20051;-73
2022/06/05 02:17:38;;;;;;;4.28;2.78;;;;;;;12.73;84.20;100933.50;5088764;28;20069;-73
2022/06/05 02:20:07;;;;;;;5.15;2.90;;;;;;;12.80;83.84;100938.66;5081925;28;20040;-72
2022/06/05 02:22:36;;;;;;;4.28;2.80;;;;;;;12.85;83.45;100944.97;5083870;28;20191;-73
2022/06/05 02:25:02;;;;;;;4.65;2.60;;;;;;;12.94;83.17;100934.13;5078076;28;20495;-73
2022/06/05 02:27:28;;;;;;;3.00;2.55;;;;;;;13.07;83.37;100940.91;5075875;28;20040;-73
2022/06/05 02:29:55;;;;;;;4.85;3.20;;;;;;;13.09;82.74;100939.50;5089293;28;20698;-73
2022/06/05 02:32:29;;;;;;;3.97;2.50;;;;;;;13.13;83.13;100939.72;5083814;28;20043;-73
2022/06/05 02:35:01;;;;;;;7.15;2.83;;;;;;;13.31;81.92;100946.47;5084532;28;20152;-73
2022/06/05 02:37:39;;;;;;;4.75;2.53;;;;;;;13.43;82.04;100936.69;5082456;28;20040;-73
2022/06/05 02:40:10;;;;;;;3.30;2.55;;;;;;;13.41;82.08;100938.94;5081213;28;20036;-73
2022/06/05 02:42:41;;;;;;;3.42;2.45;;;;;;;13.41;81.73;100935.34;5078620;28;20047;-73
2022/06/05 02:45:30;;;;;;;3.65;2.78;;;;;;;13.41;81.21;100936.16;5082793;28;20040;-73
2022/06/05 02:48:12;;;;;;;;;;;;;;;13.44;81.18;100932.00;5087036;28;20457;-73
2022/06/05 02:50:44;;;;;;;4.82;2.60;;;;;;;13.49;80.96;100937.44;5062856;28;19926;-73
2022/06/05 02:53:11;;;;;;;3.83;2.40;;;;;;;13.52;81.12;100936.84;5088613;28;20090;-73
2022/06/05 02:55:37;;;;;;;2.63;2.35;;;;;;;13.55;81.07;100937.09;5087385;28;20132;-73
2022/06/05 02:58:04;;;;;;;4.13;2.22;;;;;;;13.65;80.91;100936.16;5076309;28;20123;-73
2022/06/05 03:00:33;;;;;;;2.90;2.60;;;;;;;13.77;80.31;100941.25;5079816;28;20075;-73
2022/06/05 03:05:43;;;;;;;3.13;2.60;;;;;;;13.88;79.81;100937.22;5080810;28;20040;-73
2022/06/05 03:08:13;;;;;;;3.13;2.47;;;;;;;13.93;79.21;100937.19;5077684;28;20086;-73
2022/06/05 03:10:39;;;;;;;3.25;2.33;;;;;;;13.96;78.96;100939.34;5082840;28;20043;-73
2022/06/05 03:13:05;;;;;;;5.15;2.60;;;;;;;14.00;78.83;100942.31;5081955;28;20097;-73
2022/06/05 03:15:31;;;;;;;3.72;2.53;;;;;;;14.14;79.03;100948.75;5087138;28;20043;-73
2022/06/05 03:17:57;;;;;;;3.40;2.60;;;;;;;14.26;78.68;100951.09;5078928;28;20028;-73
2022/06/05 03:20:23;;;;;;;3.72;2.50;;;;;;;14.23;78.30;100957.19;5075204;28;20094;-73
2022/06/05 03:22:49;;;;;;;4.63;2.60;;;;;;;14.17;78.53;100948.97;5082735;28;20028;-73
2022/06/05 03:25:19;;;;;;;3.58;2.60;;;;;;;14.15;78.44;100955.91;5083823;28;20045;-73
2022/06/05 03:27:45;;;;;;;3.03;2.10;;;;;;;14.14;78.74;100960.63;5058860;28;20435;-74
2022/06/05 03:30:12;;;;;;;3.45;2.50;;;;;;;14.17;78.77;100954.50;5082926;28;20441;-73
2022/06/05 03:32:38;;;;;;;3.35;2.28;;;;;;;14.24;79.03;100948.63;5087256;28;20101;-73
2022/06/05 03:35:05;;;;;;;2.50;2.28;;;;;;;14.35;78.43;100943.75;5079411;28;20063;-73
2022/06/05 03:37:31;;;;;;;4.30;2.75;;;;;;;14.37;78.50;100949.78;5080165;28;20135;-73
2022/06/05 03:39:56;;;;;;;3.97;2.20;;;;;;;14.42;78.26;100945.03;5084502;28;20651;-73
2022/06/05 03:42:23;;;;;;;4.07;2.30;;;;;;;14.43;78.07;100957.75;5079856;28;20074;-73
2022/06/05 03:44:48;;;;;;;3.50;2.42;;;;;;;14.37;78.13;100950.63;5076266;28;20036;-73
2022/06/05 03:47:14;;;;;;;3.58;2.13;;;;;;;14.35;78.15;100949.28;5080038;28;20090;-72
2022/06/05 03:49:39;;;;;;;4.53;2.22;;;;;;;14.35;78.22;100944.59;5085988;28;20062;-72
2022/06/05 03:52:07;;;;;;;4.95;2.53;;;;;;;14.35;78.44;100943.75;5081910;28;20143;-73
2022/06/05 03:54:36;;;;;;;3.42;2.10;;;;;;;14.40;78.52;100951.97;5094368;27;20036;-72
2022/06/05 03:57:27;;;;;;;2.40;1.95;;;;;;;14.51;78.27;100947.16;5071838;28;20044;-73
2022/06/05 03:59:52;;;;;;;3.08;2.35;;;;;;;14.58;77.58;100942.06;5079144;28;20067;-71
2022/06/05 04:02:18;;;;;;;4.57;2.40;;;;;;;14.70;77.55;100945.16;5073170;28;20033;-71
2022/06/05 04:04:43;;;;;;;3.80;2.40;;;;;;;14.77;76.99;100943.69;5071579;28;20131;-71
2022/06/05 04:07:09;;;;;;;4.25;2.05;;;;;;;14.85;76.73;100944.91;5071890;28;20120;-71
2022/06/05 04:09:34;;;;;;;3.00;2.22;;;;;;;14.94;76.95;100945.06;5072442;28;20558;-71
2022/06/05 04:12:00;;;;;;;2.55;2.20;;;;;;;15.00;76.43;100943.84;5072065;28;20045;-71
2022/06/05 04:14:26;;;;;;;2.30;2.10;;;;;;;15.00;75.92;100938.31;5077419;28;20105;-71
2022/06/05 04:16:51;;;;;;;5.18;2.30;;;;;;;15.01;76.09;100951.00;5072053;28;20036;-72
2022/06/05 04:19:17;;;;;;;3.20;2.40;;;;;;;15.06;75.56;100950.91;5071453;28;20174;-72
2022/06/05 04:21:44;;;;;;;3.63;2.10;;;;;;;15.08;75.46;100945.91;5086965;28;20138;-72
2022/06/05 04:24:11;;;;;;;3.92;2.35;;;;;;;15.11;75.01;100947.25;5078075;28;20562;-72
2022/06/05 04:26:40;;;;;;;4.40;2.35;;;;;;;15.14;74.85;100947.47;5089626;28;20064;-72
2022/06/05 04:29:06;;;;;;;2.28;1.90;;;;;;;15.18;74.55;100944.91;5089048;28;20052;-72
2022/06/05 04:31:37;;;;;;;2.97;2.00;;;;;;;15.21;74.33;100950.63;5077798;28;20391;-72
2022/06/05 04:34:05;;;;;;;3.17;2.10;;;;;;;15.23;74.24;100953.91;5078408;28;20045;-72
2022/06/05 04:36:31;;;;;;;2.30;2.10;;;;;;;15.27;74.16;100949.44;5087400;28;20183;-72
2022/06/05 04:38:56;;;;;;;4.05;2.17;;;;;;;15.41;74.31;100945.84;5090225;28;20124;-72
2022/06/05 04:41:24;;;;;;;3.75;2.15;;;;;;;15.49;73.93;100945.16;5076519;28;20059;-72
2022/06/05 04:43:51;;;;;;;2.03;1.83;;;;;;;15.58;73.39;100944.13;5090999;28;20089;-72
2022/06/05 04:46:19;;;;;;;3.53;1.80;;;;;;;15.66;73.18;100943.44;5090080;28;20036;-72
2022/06/05 04:48:44;;;;;;;4.28;2.30;;;;;;;15.80;72.48;100940.69;5071982;28;20043;-72
2022/06/05 04:51:12;;;;;;;3.30;1.90;;;;;;;16.11;72.19;100942.75;5086337;28;20040;-72
2022/06/05 04:53:39;;;;;;;2.40;2.00;;;;;;;16.56;71.10;100936.16;5075971;28;20097;-72
2022/06/05 04:56:10;;;;;;;2.00;1.80;;;;;;;16.95;69.78;100936.63;5086640;28;20116;-72
2022/06/05 04:58:36;;;;;;;2.17;1.90;;;;;;;17.24;68.77;100934.19;5071896;28;20127;-72
2022/06/05 05:01:12;;;;;;;3.55;2.10;;;;;;;17.34;67.70;100939.44;5074934;28;20722;-72
2022/06/05 05:03:38;;;;;;;1.80;1.67;;;;;;;17.46;67.01;100944.41;5086630;28;20776;-72
2022/06/05 05:06:03;;;;;;;3.38;1.75;;;;;;;17.52;66.84;100939.53;5089836;28;20058;-72
2022/06/05 05:08:29;;;;;;;2.20;2.00;;;;;;;17.62;65.93;100931.75;5074470;28;20041;-72
2022/06/05 05:10:54;;;;;;;2.65;1.92;;;;;;;17.61;65.77;100930.09;5072105;28;20067;-72
2022/06/05 05:13:20;;;;;;;3.28;2.22;;;;;;;17.56;65.50;100930.25;5078832;28;20170;-73
2022/06/05 05:15:50;;;;;;;3.75;1.70;;;;;;;17.61;65.23;100934.84;5087136;28;20577;-72
2022/06/05 05:18:15;;;;;;;2.65;1.60;;;;;;;17.64;65.09;100937.78;5087119;28;20044;-72
2022/06/05 05:20:41;;;;;;;2.38;2.03;;;;;;;17.68;64.82;100933.25;5082695;28;20411;-72
2022/06/05 05:23:07;;;;;;;4.85;2.20;;;;;;;17.64;64.96;100936.97;5073212;28;20040;-72
2022/06/05 05:25:33;;;;;;;3.38;1.88;;;;;;;17.70;65.17;100946.78;5071417;28;20124;-72
2022/06/05 05:27:58;;;;;;;1.95;1.70;;;;;;;17.91;64.87;100952.59;5083350;28;20127;-72
2022/06/05 05:30:24;;;;;;;2.13;1.88;;;;;;;18.12;64.44;100948.06;5082214;28;20039;-72
2022/06/05 05:32:50;;;;;;;2.25;1.70;;;;;;;18.15;63.92;100947.41;5076187;28;20036;-72
2022/06/05 05:35:17;;;;;;;1.90;1.63;;;;;;;18.23;64.08;100948.59;5086731;28;20458;-73
2022/06/05 05:37:42;;;;;;;2.75;2.10;;;;;;;18.28;62.85;100943.69;5087679;28;20036;-73
2022/06/05 05:42:54;;;;;;;2.00;1.77;;;;;;;18.24;63.52;100951.03;5072687;28;20040;-72
2022/06/05 05:45:19;;;;;;;1.80;1.70;;;;;;;18.25;63.33;100954.63;5084943;28;20391;-72
2022/06/05 05:47:45;;;;;;;2.53;1.75;;;;;;;18.22;63.14;100958.88;5076477;28;20127;-72
2022/06/05 05:50:13;;;;;;;2.53;2.00;;;;;;;18.21;63.50;100951.66;5072745;28;20041;-72
2022/06/05 05:52:38;;;;;;;1.60;1.50;;;;;;;18.21;63.09;100960.00;5072987;28;20037;-72
2022/06/05 05:55:05;;;;;;;2.88;1.95;;;;;;;18.24;62.83;100958.56;5070315;28;20044;-72
2022/06/05 05:57:31;;;;;;;1.88;1.75;;;;;;;18.29;62.50;100964.75;5085670;28;20071;-72
2022/06/05 05:59:57;;;;;;;2.97;1.80;;;;;;;18.41;62.67;100968.88;5087562;28;20060;-72
2022/06/05 06:02:24;;;;;;;3.08;1.98;;;;;;;18.51;62.48;100960.19;5083930;28;20448;-72
2022/06/05 06:04:51;;;;;;;1.73;1.63;;;;;;;18.50;62.13;100964.94;5079558;28;20681;-72
2022/06/05 06:07:17;;;;;;;1.83;1.58;;;;;;;18.57;61.67;100970.84;5074615;28;20602;-72
2022/06/05 06:09:43;;;;;;;2.60;1.80;;;;;;;18.60;61.72;100972.94;5089025;28;20387;-72
2022/06/05 06:12:10;;;;;;;2.22;1.80;;;;;;;18.64;61.74;100970.38;5089050;28;20102;-73
2022/06/05 06:14:37;;;;;;;2.35;1.42;;;;;;;18.70;61.43;100977.38;5087766;28;20052;-72
2022/06/05 06:17:03;;;;;;;2.75;1.27;;;;;;;18.92;61.10;100968.88;5087343;28;20640;-73
2022/06/05 06:19:29;;;;;;;1.90;1.80;;;;;;;19.13;60.53;100973.75;5076449;28;20043;-73
2022/06/05 06:21:54;;;;;;;1.90;1.70;;;;;;;19.27;59.89;100968.81;5092415;28;20043;-72
2022/06/05 06:24:20;;;;;;;1.85;1.55;;;;;;;19.50;59.22;100970.19;5093000;28;20044;-72
2022/06/05 06:26:45;;;;;;;1.65;1.50;;;;;;;19.73;58.29;100970.78;5091093;28;20059;-73
2022/06/05 06:29:11;;;;;;;2.67;1.55;;;;;;;19.89;57.54;100965.44;5079901;28;20032;-73
2022/06/05 06:31:38;;;;;;;2.83;1.70;;;;;;;20.06;57.01;100972.91;5090960;28;20395;-73
2022/06/05 06:34:05;;;;;;;1.90;1.55;;;;;;;20.10;56.87;100971.88;5090823;28;20414;-72
2022/06/05 06:36:32;;;;;;;2.38;1.80;;;;;;;20.15;56.32;100971.69;5089489;28;20082;-72
2022/06/05 06:38:58;;;;;;;1.80;1.45;;;;;;;20.27;56.47;100970.94;5092370;28;20502;-72
2022/06/05 06:41:24;;;;;;;2.00;1.60;;;;;;;20.40;56.46;100974.63;5092966;28;20040;-72
2022/06/05 06:43:50;;;;;;;2.65;1.65;;;;;;;20.51;55.73;100973.13;5077917;28;20043;-72
2022/06/05 06:46:17;;;;;;;3.90;1.60;;;;;;;20.52;55.41;100977.53;5077845;28;20114;-72
2022/06/05 06:48:42;;;;;;;2.13;1.77;;;;;;;20.46;55.25;100984.44;5074710;28;20040;-72
2022/06/05 06:51:09;;;;;;;4.25;1.73;;;;;;;20.42;55.97;100984.31;5088535;28;20044;-72
2022/06/05 06:53:36;;;;;;;1.85;1.75;;;;;;;20.52;55.27;100997.06;5090104;28;20044;-72
2022/06/05 06:56:17;;;;;;;2.13;1.60;;;;;;;20.44;54.60;100986.75;5075436;28;20530;-72
2022/06/05 06:58:44;;;;;;;1.73;1.63;;;;;;;20.41;54.99;100981.88;5077376;28;20041;-73
2022/06/05 07:01:11;;;;;;;1.48;1.38;;;;;;;20.36;55.27;100987.63;5102064;28;20040;-72
2022/06/05 07:03:37;;;;;;;1.95;1.58;;;;;;;20.31;55.72;100993.41;5082270;28;20418;-72
2022/06/05 07:06:07;;;;;;;2.10;1.80;;;;;;;20.35;55.58;100994.34;5092392;28;20032;-72
2022/06/05 07:08:32;;;;;;;1.75;1.65;;;;;;;20.46;55.61;100995.59;5081903;28;20135;-72
2022/06/05 07:10:58;;;;;;;2.00;1.73;;;;;;;20.52;55.40;100994.25;5080529;28;20517;-72
2022/06/05 07:13:24;;;;;;;2.05;1.67;;;;;;;20.52;55.32;100999.03;5093344;28;20040;-72
2022/06/05 07:15:50;;;;;;;2.85;2.15;;;;;;;20.65;54.85;100997.91;5108895;28;20506;-72
2022/06/05 07:18:17;;;;;;;3.28;2.20;;;;;;;20.85;55.03;100999.09;5088814;28;20436;-73
2022/06/05 07:20:43;;;;;;;1.95;1.85;;;;;;;21.04;53.79;101003.00;5100526;28;20037;-73
2022/06/05 07:23:09;;;;;;;2.53;2.05;;;;;;;21.12;53.80;101011.63;5078512;28;20492;-73
2022/06/05 07:25:36;;;;;;;1.60;1.50;;;;;;;21.17;52.95;101009.41;5080005;28;20036;-72
2022/06/05 07:28:02;;;;;;;3.78;1.90;;;;;;;21.17;53.88;101014.19;5082462;28;20556;-72
2022/06/05 07:30:28;;;;;;;3.97;1.98;;;;;;;21.11;53.46;101021.97;5089756;28;20410;-72
2022/06/05 07:32:54;;;;;;;3.03;1.92;;;;;;;20.94;53.05;101016.53;5073981;28;20061;-72
2022/06/05 07:35:20;;;;;;;3.08;1.88;;;;;;;20.75;53.34;101029.00;5090329;28;20036;-72
2022/06/05 07:37:45;;;;;;;3.80;2.00;;;;;;;20.61;53.13;101014.50;5089826;28;20071;-72
2022/06/05 07:40:12;;;;;;;2.05;1.85;;;;;;;20.44;53.10;101028.56;5091488;28;20036;-72
2022/06/05 07:42:38;;;;;;;2.17;2.08;;;;;;;20.23;54.52;101022.94;5080834;28;20048;-72
2022/06/05 07:45:05;;;;;;;2.42;1.90;;;;;;;20.15;54.04;101023.81;5082059;28;20051;-72
2022/06/05 07:47:30;;;;;;;2.33;2.00;;;;;;;20.04;53.94;101019.78;5089854;28;20044;-72
2022/06/05 07:49:56;;;;;;;4.28;2.00;;;;;;;19.93;55.02;101027.69;5073501;28;20085;-72
2022/06/05 07:55:06;;;;;;;2.10;1.90;;;;;;;19.85;55.20;101031.34;5080022;28;20059;-72
2022/06/05 07:57:32;;;;;;;2.97;2.00;;;;;;;19.82;55.02;101038.41;5072652;28;20047;-72
2022/06/05 07:59:58;;;;;;;2.30;1.85;;;;;;;19.73;55.09;101043.16;5085118;28;20080;-72
2022/06/05 08:02:26;;;;;;;2.40;1.98;;;;;;;19.78;55.46;101037.41;5080513;28;20047;-72
2022/06/05 08:04:53;;;;;;;1.95;1.85;;;;;;;19.78;55.63;101048.56;5081205;28;20040;-72
2022/06/05 08:07:24;;;;;;;2.45;1.90;;;;;;;19.96;55.45;101051.25;5085134;28;20479;-72
2022/06/05 08:09:52;;;;;;;2.35;2.15;;;;;;;20.19;55.10;101052.66;5074374;28;20071;-72
2022/06/05 08:12:19;;;;;;;3.30;2.30;;;;;;;20.10;55.16;101049.88;5073057;28;20040;-72
2022/06/05 08:14:48;;;;;;;2.30;2.10;;;;;;;19.95;55.53;101056.03;5076750;28;20389;-72
2022/06/05 08:17:16;;;;;;;;;;;;;;;19.77;56.41;101062.81;5083202;28;20040;-72
2022/06/05 08:19:43;;;;;;;2.10;1.90;;;;;;;19.63;56.22;101060.25;5088800;28;19944;-72
2022/06/05 08:22:10;;;;;;;2.08;1.88;;;;;;;19.79;56.96;101057.75;5080903;28;20046;-72
2022/06/05 08:24:35;;;;;;;2.25;2.05;;;;;;;19.82;55.60;101048.72;5076270;28;20048;-72
2022/06/05 08:27:01;;;;;;;2.30;2.10;;;;;;;19.73;55.77;101061.84;5083897;28;20489;-72
2022/06/05 08:29:27;;;;;;;2.20;1.92;;;;;;;19.69;56.14;101055.31;5084088;28;20051;-72
2022/06/05 08:31:53;;;;;;;2.05;1.92;;;;;;;19.77;55.53;101057.25;5079080;28;20036;-72
2022/06/05 08:34:19;;;;;;;2.50;2.00;;;;;;;19.82;54.71;101059.88;5083448;28;20064;-73
2022/06/05 08:36:45;;;;;;;2.80;2.20;;;;;;;19.93;54.30;101051.94;5072662;28;20110;-72
2022/06/05 08:42:32;;;;;;;3.90;2.10;;;;;;;19.87;53.97;101056.88;5074662;28;20071;-73
2022/06/05 08:45:13;;;;;;;2.17;2.00;;;;;;;19.98;53.68;101058.16;5080112;28;20041;-72
2022/06/05 08:48:02;;;;;;;1.92;1.73;;;;;;;19.91;53.13;101052.28;5079678;28;20040;-72
2022/06/05 08:50:50;;;;;;;1.77;1.67;;;;;;;20.05;52.69;101049.28;5078479;28;20042;-72
2022/06/05 08:53:23;;;;;;;2.00;1.83;;;;;;;20.10;52.76;101054.66;5090097;28;20074;-72
2022/06/05 08:55:51;;;;;;;2.33;2.13;;;;;;;20.13;52.94;101049.25;5073143;28;20286;-72
2022/06/05 08:58:44;;;;;;;1.75;1.65;;;;;;;20.27;52.76;101045.38;5086289;28;20517;-72
2022/06/05 09:01:19;;;;;;;2.45;1.77;;;;;;;20.48;52.22;101051.88;5068322;28;20064;-72
2022/06/05 09:04:21;;;;;;;2.22;1.90;;;;;;;20.57;51.61;101038.66;5075944;28;20089;-72
2022/06/05 09:06:51;;;;;;;2.03;1.83;;;;;;;20.50;51.06;101034.78;5073783;28;20045;-72
2022/06/05 09:09:29;;;;;;;5.15;1.80;;;;;;;20.60;51.27;101037.16;5074039;28;20036;-72
2022/06/05 09:12:01;;;;;;;2.30;1.60;;;;;;;20.55;50.44;101024.25;5089945;28;20102;-72
2022/06/05 09:14:36;;;;;;;1.60;1.50;;;;;;;20.42;50.91;101028.91;5076888;28;20052;-72
2022/06/05 09:17:22;;;;;;;1.88;1.73;;;;;;;20.20;51.15;101028.38;5084791;28;20051;-72
2022/06/05 09:19:49;;;;;;;2.38;2.03;;;;;;;20.11;51.84;101032.00;5072915;28;20205;-73
2022/06/05 09:22:33;;;;;;;3.35;2.05;;;;;;;20.12;52.28;101033.66;5078532;28;20123;-72
2022/06/05 09:25:14;;;;;;;2.03;1.88;;;;;;;20.05;52.77;101036.16;5087629;28;20066;-72
2022/06/05 09:27:54;;;;;;;1.55;1.45;;;;;;;20.07;51.89;101028.28;5083960;28;20040;-72
2022/06/05 09:30:29;;;;;;;1.67;1.58;;;;;;;20.05;51.70;101038.13;5081303;28;20571;-72
2022/06/05 09:33:06;;;;;;;5.82;1.90;;;;;;;19.89;52.00;101037.88;5072533;28;20070;-73
2022/06/05 09:35:35;;;;;;;2.13;1.77;;;;;;;19.72;52.52;101040.72;5078171;28;20043;-72
2022/06/05 09:38:03;;;;;;;3.15;1.77;;;;;;;19.63;53.35;101026.03;5088890;28;20044;-72
2022/06/05 09:40:36;;;;;;;1.65;1.48;;;;;;;19.79;52.89;101027.13;5079001;28;20051;-72
2022/06/05 09:43:14;;;;;;;2.10;1.90;;;;;;;19.79;52.61;101021.53;5071964;28;20128;-72
2022/06/05 09:45:58;;;;;;;1.67;1.58;;;;;;;19.65;52.31;101027.31;5074607;28;20063;-72
2022/06/05 09:48:45;;;;;;;2.03;1.80;;;;;;;19.57;52.13;101020.63;5090157;28;20036;-72
2022/06/05 09:51:13;;;;;;;2.38;1.33;;;;;;;19.38;51.60;101031.28;5077802;28;20391;-72
2022/06/05 09:53:45;;;;;;;3.13;1.60;;;;;;;19.16;51.77;101031.50;5074503;28;20040;-72
2022/06/05 09:56:19;;;;;;;1.60;1.50;;;;;;;18.93;52.62;101028.91;5070885;28;20040;-72
2022/06/05 09:59:01;;;;;;;1.80;1.70;;;;;;;18.82;53.28;101035.13;5079351;28;20052;-72
2022/06/05 10:01:34;;;;;;;1.60;1.50;;;;;;;18.79;53.56;101042.16;5080607;28;20456;-72
2022/06/05 10:04:04;;;;;;;3.42;1.77;;;;;;;18.72;53.67;101041.00;5078363;28;20040;-72
2022/06/05 10:06:37;;;;;;;2.28;1.52;;;;;;;18.62;54.10;101044.91;5074826;28;20178;-72
2022/06/05 10:09:15;;;;;;;1.90;1.70;;;;;;;18.71;53.56;101036.56;5077501;28;20030;-72
2022/06/05 10:12:00;;;;;;;1.65;1.55;;;;;;;18.65;53.80;101036.75;5090628;28;20503;-72
2022/06/05 10:14:50;;;;;;;1.52;1.42;;;;;;;18.61;53.91;101032.13;5074598;28;20055;-72
2022/06/05 10:17:54;;;;;;;1.80;1.40;;;;;;;18.58;54.00;101039.16;5093313;28;20537;-72
2022/06/05 10:20:22;;;;;;;1.80;1.42;;;;;;;18.71;53.56;101039.34;5087813;28;20040;-72
2022/06/05 10:23:02;;;;;;;1.80;1.58;;;;;;;18.67;53.72;101034.47;5089995;28;20040;-72
2022/06/05 10:25:34;;;;;;;4.35;1.50;;;;;;;18.62;53.52;101042.13;5083769;28;20047;-72
2022/06/05 10:28:09;;;;;;;3.10;1.70;;;;;;;18.61;53.87;101037.69;5088225;28;20072;-72
2022/06/05 10:30:59;;;;;;;2.38;1.92;;;;;;;18.64;53.11;101042.63;5077251;28;20040;-72
2022/06/05 10:33:27;;;;;;;2.22;1.77;;;;;;;18.67;53.03;101047.53;5073656;28;20083;-72
2022/06/05 10:36:00;;;;;;;2.35;1.63;;;;;;;18.79;52.90;101047.72;5085453;28;20032;-72
2022/06/05 10:38:50;;;;;;;1.70;1.60;;;;;;;18.81;53.19;101056.53;5093211;28;20040;-72
2022/06/05 10:41:30;;;;;;;1.65;1.40;;;;;;;18.84;52.51;101049.50;5076200;28;20094;-71
2022/06/05 10:44:12;;;;;;;2.35;1.42;;;;;;;18.82;52.83;101060.97;5080354;28;20131;-71
2022/06/05 10:46:44;;;;;;;1.92;1.55;;;;;;;18.83;53.06;101059.00;5091533;28;20070;-71
2022/06/05 10:49:34;;;;;;;1.45;1.30;;;;;;;18.89;53.07;101064.06;5089853;28;20498;-71
2022/06/05 10:52:13;;;;;;;1.65;1.40;;;;;;;18.94;51.41;101057.53;5080092;28;20049;-71
2022/06/05 10:54:51;;;;;;;1.95;1.38;;;;;;;18.94;51.89;101057.53;5085744;28;20043;-71
2022/06/05 10:57:22;;;;;;;3.47;1.17;;;;;;;18.97;51.13;101054.91;5074159;28;20044;-71
2022/06/05 11:00:03;;;;;;;3.03;2.00;;;;;;;19.00;50.99;101055.41;5078407;28;20503;-72
2022/06/05 11:03:04;;;;;;;2.15;1.10;;;;;;;19.04;51.33;101061.94;5085685;28;20051;-72
2022/06/05 11:05:45;;;;;;;1.50;1.27;;;;;;;19.11;50.75;101068.66;5091495;28;20058;-78
2022/06/05 11:08:23;;;;;;;1.42;1.20;;;;;;;19.06;50.92;101065.19;5092032;28;20040;-76
2022/06/05 11:13:53;;;;;;;1.88;1.40;;;;;;;18.87;50.89;101065.53;5090798;28;20102;-77
2022/06/05 11:16:27;;;;;;;4.85;1.50;;;;;;;18.79;51.14;101071.94;5077051;28;20101;-75
2022/06/05 11:19:08;;;;;;;1.40;1.20;;;;;;;18.72;51.10;101077.94;5082976;28;20419;-71
2022/06/05 11:21:34;;;;;;;2.20;1.20;;;;;;;18.68;51.67;101079.75;5083742;28;20495;-71
2022/06/05 11:24:00;;;;;;;1.58;1.30;;;;;;;18.68;52.00;101076.97;5092149;28;20040;-71
2022/06/05 11:26:54;;;;;;;2.30;1.70;;;;;;;18.72;52.49;101072.38;5079983;28;20039;-71
2022/06/05 11:29:34;;;;;;;1.45;1.35;;;;;;;18.89;52.08;101074.38;5075286;28;20037;-71
2022/06/05 11:32:20;;;;;;;1.92;1.35;;;;;;;19.05;52.11;101075.50;5088382;28;20503;-71
2022/06/05 11:34:59;;;;;;;2.08;1.35;;;;;;;19.13;52.34;101080.28;5073519;28;20523;-71
2022/06/05 11:37:34;;;;;;;2.13;1.60;;;;;;;19.13;51.98;101077.50;5071356;28;20415;-71
2022/06/05 11:40:12;;;;;;;2.33;1.90;;;;;;;18.98;52.57;101075.19;5081856;28;20043;-71
2022/06/05 11:42:46;;;;;;;2.40;1.95;;;;;;;18.83;52.97;101079.28;5077759;28;20036;-71
2022/06/05 11:45:25;;;;;;;1.33;1.23;;;;;;;18.77;53.56;101079.78;5094069;28;20044;-71
2022/06/05 11:48:22;;;;;;;1.70;1.52;;;;;;;18.73;53.98;101079.59;5071453;28;20063;-71
2022/06/05 11:51:36;;;;;;;1.92;1.70;;;;;;;18.74;54.02;101075.66;5074425;28;20036;-73
2022/06/05 11:54:07;;;;;;;1.90;1.60;;;;;;;18.64;53.98;101076.00;5086599;28;20133;-73
2022/06/05 11:56:48;;;;;;;2.78;1.80;;;;;;;18.47;54.73;101087.84;5092122;28;20036;-72
2022/06/05 11:59:29;;;;;;;1.55;1.42;;;;;;;18.28;55.41;101082.56;5086307;28;20503;-73
2022/06/05 12:02:07;;;;;;;3.35;1.60;;;;;;;18.19;56.71;101084.50;5074196;28;20040;-71